Time;durP1;ratioP1;P1;durP2;ratioP2;P2;SDS_P1;SDS_P2;PMS_P1;PMS_P2;Temp;Humidity;BMP_temperature;BMP_pressure;BME280_temperature;BME280_humidity;BME280_pressure;Samples;Min_cycle;Max_cycle;Signal;HPM_P1;HPM_P2
2023/04/21 00:00:08;;;;;;;45.13;24.83;;;9.30;99.90;;;;;;4853904;29;20678;-79
2023/04/21 00:02:38;;;;;;;46.00;25.00;;;9.30;99.90;;;;;;4857659;29;20216;-79
2023/04/21 00:05:09;;;;;;;51.73;27.03;;;9.30;99.90;;;;;;4853742;29;20580;-79
2023/04/21 00:07:37;;;;;;;46.57;25.73;;;9.20;99.90;;;;;;4857496;29;20228;-78
2023/04/21 00:10:08;;;;;;;51.40;26.97;;;9.20;99.90;;;;;;4857238;29;20708;-79
2023/04/21 00:38:04;;;;;;;55.07;27.67;;;9.20;99.90;;;;;;4898604;29;20304;-80
2023/04/21 00:40:31;;;;;;;50.10;27.03;;;9.10;99.90;;;;;;4886545;29;20217;-81
2023/04/21 00:42:58;;;;;;;54.90;28.23;;;9.10;99.90;;;;;;4919637;29;20218;-80
2023/04/21 00:45:25;;;;;;;53.63;28.37;;;9.10;99.90;;;;;;4903160;29;20253;-81
2023/04/21 00:47:51;;;;;;;54.17;28.10;;;9.10;99.90;;;;;;4919062;29;20577;-79
2023/04/21 00:50:18;;;;;;;53.67;27.20;;;9.10;99.90;;;;;;4917960;29;20225;-80
2023/04/21 00:52:45;;;;;;;61.03;30.10;;;9.10;99.90;;;;;;4917721;29;20215;-80
2023/04/21 00:55:13;;;;;;;58.80;28.67;;;9.20;99.90;;;;;;4919793;29;20280;-80
2023/04/21 00:57:40;;;;;;;59.37;28.33;;;9.30;99.90;;;;;;4916002;29;20210;-80
2023/04/21 01:00:08;;;;;;;67.17;29.43;;;9.10;99.90;;;;;;4918998;29;20221;-79
2023/04/21 01:02:36;;;;;;;62.80;30.93;;;9.20;99.90;;;;;;4919303;29;20309;-81
2023/04/21 01:05:08;;;;;;;58.97;30.03;;;9.20;99.90;;;;;;4917802;29;20213;-81
2023/04/21 01:07:35;;;;;;;56.07;28.67;;;9.20;99.90;;;;;;4917395;29;20210;-81
2023/04/21 01:10:03;;;;;;;60.13;29.73;;;9.20;99.90;;;;;;4917315;29;20715;-81
2023/04/21 01:12:30;;;;;;;60.00;29.53;;;9.20;99.90;;;;;;4916672;29;20214;-80
2023/04/21 01:14:56;;;;;;;55.20;28.47;;;9.20;99.90;;;;;;4918686;29;20228;-81
2023/04/21 01:17:24;;;;;;;55.03;30.03;;;9.30;99.90;;;;;;4900767;29;20214;-82
2023/04/21 01:19:55;;;;;;;60.90;31.17;;;9.30;99.90;;;;;;4903541;29;20210;-82
2023/04/21 01:22:21;;;;;;;58.60;30.40;;;9.30;99.90;;;;;;4900548;29;20217;-81
2023/04/21 01:24:48;;;;;;;59.40;29.40;;;9.30;99.90;;;;;;4915702;29;20234;-81
2023/04/21 01:27:18;;;;;;;63.30;29.57;;;9.30;99.90;;;;;;4916481;29;20220;-80
2023/04/21 01:29:47;;;;;;;60.07;29.30;;;9.30;99.90;;;;;;4912986;29;20237;-80
2023/04/21 01:32:18;;;;;;;60.40;30.30;;;9.20;99.90;;;;;;4916837;29;20668;-81
2023/04/21 01:34:46;;;;;;;61.80;30.63;;;9.30;99.90;;;;;;4915077;29;20587;-81
2023/04/21 01:37:16;;;;;;;58.47;29.40;;;9.30;99.90;;;;;;4931455;29;20268;-82
2023/04/21 01:39:46;;;;;;;58.53;30.33;;;9.30;99.90;;;;;;4917833;29;20297;-80
2023/04/21 01:42:13;;;;;;;61.07;30.87;;;9.30;99.90;;;;;;4930977;29;20565;-81
2023/04/21 01:44:42;;;;;;;58.40;29.93;;;9.30;99.90;;;;;;4934475;29;20313;-81
2023/04/21 01:47:10;;;;;;;58.80;29.80;;;9.40;99.90;;;;;;4933784;29;20312;-82
2023/04/21 01:49:36;;;;;;;56.93;28.37;;;9.20;99.90;;;;;;4934930;29;20236;-82
2023/04/21 01:52:03;;;;;;;59.80;30.47;;;9.40;99.90;;;;;;4938368;29;20682;-79
2023/04/21 01:54:30;;;;;;;59.97;30.37;;;9.40;99.90;;;;;;4934246;29;20660;-80
2023/04/21 01:56:57;;;;;;;53.37;28.07;;;9.40;99.90;;;;;;4934527;29;20211;-80
2023/04/21 01:59:24;;;;;;;58.47;29.77;;;9.40;99.90;;;;;;4919997;29;20232;-80
2023/04/21 02:01:51;;;;;;;58.50;30.03;;;9.50;99.90;;;;;;4935067;29;20296;-80
2023/04/21 02:04:18;;;;;;;59.37;30.63;;;9.50;99.90;;;;;;4936323;29;20201;-80
2023/04/21 02:06:45;;;;;;;55.17;28.20;;;9.60;99.90;;;;;;4917084;29;20194;-81
2023/04/21 02:09:12;;;;;;;54.80;29.77;;;9.50;99.90;;;;;;4930748;29;20701;-80
2023/04/21 02:11:38;;;;;;;59.90;31.13;;;9.50;99.90;;;;;;4934377;29;20233;-80
2023/04/21 02:14:05;;;;;;;53.00;29.03;;;9.50;99.90;;;;;;4936248;29;20189;-80
2023/04/21 02:16:32;;;;;;;56.53;30.53;;;9.50;99.90;;;;;;4934302;29;20205;-81
2023/04/21 02:18:59;;;;;;;54.80;28.90;;;9.50;99.90;;;;;;4917336;29;20537;-81
2023/04/21 02:21:26;;;;;;;55.47;29.30;;;9.50;99.90;;;;;;4935461;29;20366;-80
2023/04/21 02:23:54;;;;;;;55.47;30.03;;;9.60;99.90;;;;;;4934533;29;20197;-82
2023/04/21 02:26:20;;;;;;;57.90;29.70;;;9.60;99.90;;;;;;4922661;29;20240;-81
2023/04/21 02:28:48;;;;;;;55.57;29.07;;;9.60;99.90;;;;;;4933304;29;20925;-83
2023/04/21 02:31:16;;;;;;;58.63;30.00;;;9.60;99.90;;;;;;4934230;29;20237;-80
2023/04/21 02:33:43;;;;;;;53.70;28.13;;;9.60;99.90;;;;;;4934576;29;20212;-80
2023/04/21 02:36:09;;;;;;;55.70;29.33;;;9.50;99.90;;;;;;4928540;29;20694;-80
2023/04/21 02:38:36;;;;;;;60.83;29.70;;;9.60;99.90;;;;;;4923340;29;20300;-81
2023/04/21 02:41:03;;;;;;;50.90;27.67;;;9.60;99.90;;;;;;4908097;29;20206;-81
2023/04/21 02:43:30;;;;;;;57.90;30.40;;;9.60;99.90;;;;;;4924376;29;20216;-81
2023/04/21 02:45:56;;;;;;;57.37;29.97;;;9.60;99.90;;;;;;4923966;29;20228;-82
2023/04/21 02:48:23;;;;;;;58.63;29.73;;;9.60;99.90;;;;;;4927169;29;20214;-83
2023/04/21 02:50:52;;;;;;;61.63;30.90;;;9.60;99.90;;;;;;4925318;29;20249;-81
2023/04/21 02:53:19;;;;;;;59.10;31.33;;;9.60;99.90;;;;;;4924779;29;20202;-81
2023/04/21 02:55:46;;;;;;;59.77;30.57;;;9.50;99.90;;;;;;4925137;29;20786;-80
2023/04/21 02:58:14;;;;;;;62.77;31.47;;;9.50;99.90;;;;;;4925442;29;20264;-81
2023/04/21 03:00:41;;;;;;;62.20;31.17;;;9.50;99.90;;;;;;4925424;29;20238;-80
2023/04/21 03:03:08;;;;;;;62.80;32.13;;;9.50;99.90;;;;;;4922805;29;20233;-81
2023/04/21 03:05:35;;;;;;;64.10;31.33;;;9.40;99.90;;;;;;4922737;29;20213;-81
2023/04/21 03:08:02;;;;;;;62.10;32.37;;;9.40;99.90;;;;;;4922985;29;20217;-80
2023/04/21 03:10:28;;;;;;;74.53;34.87;;;9.40;99.90;;;;;;4923521;29;20307;-81
2023/04/21 03:12:55;;;;;;;67.33;31.53;;;9.50;99.90;;;;;;4923440;29;20328;-80
2023/04/21 03:15:22;;;;;;;68.37;33.67;;;9.40;99.90;;;;;;4921796;29;20317;-81
2023/04/21 03:17:49;;;;;;;68.07;33.57;;;9.40;99.90;;;;;;4923871;29;20224;-81
2023/04/21 03:20:16;;;;;;;71.93;35.00;;;9.40;99.90;;;;;;4924806;29;20198;-82
2023/04/21 03:22:43;;;;;;;76.87;35.30;;;9.40;99.90;;;;;;4927596;29;20249;-80
2023/04/21 03:25:10;;;;;;;72.20;34.27;;;9.40;99.90;;;;;;4923863;29;20324;-81
2023/04/21 03:27:37;;;;;;;72.40;34.93;;;9.40;99.90;;;;;;4924314;29;20207;-82
2023/04/21 03:30:05;;;;;;;66.57;32.97;;;9.40;99.90;;;;;;4924540;29;20310;-81
2023/04/21 03:32:32;;;;;;;65.33;34.20;;;9.40;99.90;;;;;;4921192;29;20292;-82
2023/04/21 03:34:59;;;;;;;69.87;33.43;;;9.40;99.90;;;;;;4919677;29;20210;-81
2023/04/21 03:37:26;;;;;;;68.30;34.57;;;9.40;99.90;;;;;;4933389;29;20269;-80
2023/04/21 03:39:53;;;;;;;74.30;35.37;;;9.40;99.90;;;;;;4920759;29;20606;-81
2023/04/21 03:42:19;;;;;;;76.43;34.43;;;9.40;99.90;;;;;;4933004;29;20213;-83
2023/04/21 03:44:46;;;;;;;72.40;34.60;;;9.20;99.90;;;;;;4932414;29;20221;-80
2023/04/21 03:47:15;;;;;;;79.80;34.60;;;9.40;99.90;;;;;;4933067;29;20268;-80
2023/04/21 03:49:41;;;;;;;69.53;33.27;;;9.30;99.90;;;;;;4930552;29;20206;-80
2023/04/21 03:52:08;;;;;;;82.47;34.00;;;9.30;99.90;;;;;;4932504;29;20770;-80
2023/04/21 03:54:35;;;;;;;80.50;34.70;;;9.30;99.90;;;;;;4919283;29;20227;-80
2023/04/21 03:57:02;;;;;;;74.63;34.37;;;9.30;99.90;;;;;;4933475;29;20668;-82
2023/04/21 03:59:29;;;;;;;71.90;33.23;;;9.30;99.90;;;;;;4932805;29;20225;-80
2023/04/21 04:01:55;;;;;;;73.50;34.53;;;9.30;99.90;;;;;;4932185;29;20292;-81
2023/04/21 04:04:22;;;;;;;86.43;35.97;;;9.30;99.90;;;;;;4928675;29;20613;-82
2023/04/21 04:06:49;;;;;;;83.07;36.27;;;9.30;99.90;;;;;;4932816;29;20201;-81
2023/04/21 04:09:17;;;;;;;87.13;36.40;;;9.30;99.90;;;;;;4937723;29;20396;-83
2023/04/21 04:11:44;;;;;;;88.90;37.37;;;9.40;99.90;;;;;;4936311;29;20241;-83
2023/04/21 04:14:11;;;;;;;78.03;35.50;;;9.30;99.90;;;;;;4932212;29;20225;-81
2023/04/21 04:16:37;;;;;;;79.57;35.47;;;9.30;99.90;;;;;;4932551;29;20296;-81
2023/04/21 04:19:04;;;;;;;90.23;37.40;;;9.20;99.90;;;;;;4932742;29;20624;-81
2023/04/21 04:21:31;;;;;;;85.43;36.73;;;9.40;99.90;;;;;;4934818;29;20208;-83
2023/04/21 04:23:59;;;;;;;84.00;36.90;;;9.20;99.90;;;;;;4933599;29;20690;-82
2023/04/21 04:26:25;;;;;;;92.33;37.63;;;9.20;99.90;;;;;;4931343;29;20631;-81
2023/04/21 04:28:55;;;;;;;89.87;39.27;;;9.10;99.90;;;;;;4932263;29;20756;-82
2023/04/21 04:31:24;;;;;;;86.77;37.73;;;9.40;99.90;;;;;;4928662;29;20606;-81
2023/04/21 04:33:51;;;;;;;96.00;39.43;;;9.20;99.90;;;;;;4915267;29;20633;-82
2023/04/21 04:36:21;;;;;;;89.83;37.53;;;9.20;99.90;;;;;;4920574;29;20227;-81
2023/04/21 04:38:48;;;;;;;92.70;37.37;;;9.20;99.90;;;;;;4923360;29;20702;-82
2023/04/21 04:41:15;;;;;;;88.87;37.93;;;9.20;99.90;;;;;;4936200;29;20201;-82
2023/04/21 04:43:42;;;;;;;84.80;35.23;;;9.20;99.90;;;;;;4931800;29;20597;-81
2023/04/21 04:46:11;;;;;;;87.53;37.17;;;9.20;99.90;;;;;;4932111;29;20273;-81
2023/04/21 04:48:39;;;;;;;82.23;36.70;;;9.20;99.90;;;;;;4932321;29;20220;-82
2023/04/21 04:51:06;;;;;;;91.20;37.23;;;9.20;99.90;;;;;;4934713;29;20205;-82
2023/04/21 04:53:33;;;;;;;96.13;36.60;;;9.20;99.90;;;;;;4932491;29;20296;-81
2023/04/21 04:56:01;;;;;;;85.40;35.67;;;9.20;99.90;;;;;;4932945;29;20661;-80
2023/04/21 04:58:28;;;;;;;86.77;35.50;;;9.20;99.90;;;;;;4934187;29;20244;-79
2023/04/21 05:00:55;;;;;;;99.67;38.07;;;9.30;99.90;;;;;;4935262;29;20229;-81
2023/04/21 05:03:22;;;;;;;94.93;38.57;;;9.20;99.90;;;;;;4931813;29;20256;-80
2023/04/21 05:05:49;;;;;;;87.83;37.37;;;9.20;99.90;;;;;;4936270;29;20202;-82
2023/04/21 05:08:16;;;;;;;85.50;38.27;;;9.30;99.90;;;;;;4932679;29;20232;-82
2023/04/21 05:10:44;;;;;;;91.83;39.77;;;9.20;99.90;;;;;;4936027;29;20208;-81
2023/04/21 05:13:10;;;;;;;83.60;36.37;;;9.20;99.90;;;;;;4941259;29;20330;-81
2023/04/21 05:15:37;;;;;;;87.43;37.00;;;9.20;99.90;;;;;;4937152;29;20256;-82
2023/04/21 05:18:06;;;;;;;85.30;38.17;;;9.20;99.90;;;;;;4938640;29;20297;-82
2023/04/21 05:20:33;;;;;;;83.87;37.70;;;9.20;99.90;;;;;;4933978;29;20260;-83
2023/04/21 05:22:59;;;;;;;98.33;39.30;;;9.20;99.90;;;;;;4938266;29;20244;-82
2023/04/21 05:25:26;;;;;;;89.90;37.67;;;9.30;99.90;;;;;;4935806;29;20304;-80
2023/04/21 05:27:53;;;;;;;100.47;40.50;;;9.30;99.90;;;;;;4933841;29;20296;-82
2023/04/21 05:30:20;;;;;;;87.67;38.23;;;9.30;99.90;;;;;;4938744;29;20221;-81
2023/04/21 05:32:47;;;;;;;86.37;38.07;;;9.30;99.90;;;;;;4920582;29;20236;-83
2023/04/21 05:35:21;;;;;;;94.57;39.23;;;9.30;99.90;;;;;;4922278;29;20216;-84
2023/04/21 05:37:48;;;;;;;99.83;40.67;;;9.30;99.90;;;;;;4926409;29;20278;-82
2023/04/21 05:40:15;;;;;;;109.33;42.17;;;9.30;99.90;;;;;;4920901;29;20284;-83
2023/04/21 05:42:42;;;;;;;87.43;40.90;;;9.40;99.90;;;;;;4938777;29;20200;-82
2023/04/21 05:45:11;;;;;;;89.60;40.80;;;9.30;99.90;;;;;;4932024;29;20718;-84
2023/04/21 05:47:38;;;;;;;99.67;44.20;;;9.30;99.90;;;;;;4938613;29;20572;-83
2023/04/21 05:50:06;;;;;;;102.30;42.60;;;9.30;99.90;;;;;;4934068;29;20650;-82
2023/04/21 05:52:36;;;;;;;91.10;41.67;;;9.30;99.90;;;;;;4935139;29;20292;-83
2023/04/21 05:55:10;;;;;;;92.30;42.77;;;9.30;99.90;;;;;;4934592;29;20676;-83
2023/04/21 05:57:37;;;;;;;90.50;40.80;;;9.40;99.90;;;;;;4924683;29;20271;-84
2023/04/21 06:00:05;;;;;;;97.40;44.73;;;9.40;99.90;;;;;;4923202;29;20213;-83
2023/04/21 06:02:32;;;;;;;84.23;41.60;;;9.50;99.90;;;;;;4918061;29;20209;-84
2023/04/21 06:05:02;;;;;;;94.50;42.80;;;9.50;99.90;;;;;;4920681;29;20289;-83
2023/04/21 06:07:29;;;;;;;87.20;41.80;;;9.50;99.90;;;;;;4932284;29;20212;-85
2023/04/21 06:09:56;;;;;;;81.40;40.30;;;9.60;99.90;;;;;;4935371;29;20205;-84
2023/04/21 06:12:23;;;;;;;90.53;42.47;;;9.60;99.90;;;;;;4917998;29;20264;-83
2023/04/21 06:14:59;;;;;;;85.63;40.03;;;9.60;99.90;;;;;;4927663;29;20225;-83
2023/04/21 06:17:26;;;;;;;87.77;43.13;;;9.70;99.90;;;;;;4937819;29;20589;-86
2023/04/21 06:19:58;;;;;;;82.70;41.57;;;9.70;99.90;;;;;;4920589;29;20597;-83
2023/04/21 06:22:29;;;;;;;81.83;43.03;;;9.70;99.90;;;;;;4936393;29;20209;-86
2023/04/21 06:24:57;;;;;;;82.63;42.07;;;9.70;99.90;;;;;;4935234;29;20906;-85
2023/04/21 06:27:28;;;;;;;76.90;41.57;;;9.80;99.90;;;;;;4935812;29;20243;-85
2023/04/21 06:29:55;;;;;;;84.67;43.47;;;9.80;99.90;;;;;;4932707;29;20225;-84
2023/04/21 06:32:22;;;;;;;75.77;40.27;;;9.80;99.90;;;;;;4936635;29;20302;-84
2023/04/21 06:34:49;;;;;;;69.87;38.97;;;9.80;99.90;;;;;;4938615;29;20249;-81
2023/04/21 06:37:15;;;;;;;74.40;41.27;;;9.70;99.90;;;;;;4932418;29;20296;-84
2023/04/21 06:39:42;;;;;;;78.93;42.07;;;9.90;99.90;;;;;;4932027;29;20284;-83
2023/04/21 06:42:09;;;;;;;76.83;41.20;;;9.80;99.90;;;;;;4934896;29;20206;-82
2023/04/21 06:44:37;;;;;;;70.47;39.47;;;9.80;99.90;;;;;;4936331;29;20221;-84
2023/04/21 06:47:04;;;;;;;70.10;39.97;;;9.80;99.90;;;;;;4935258;29;20510;-84
2023/04/21 06:49:33;;;;;;;68.03;40.67;;;9.80;99.90;;;;;;4923057;29;20285;-82
2023/04/21 06:52:02;;;;;;;75.40;39.50;;;9.80;99.90;;;;;;4934218;29;20306;-85
2023/04/21 06:54:29;;;;;;;67.40;38.40;;;9.80;99.90;;;;;;4937059;29;20225;-86
2023/04/21 07:12:56;;;;;;;63.13;36.40;;;9.80;99.90;;;;;;4913220;29;20329;-91
2023/04/21 07:15:45;;;;;;;68.60;38.50;;;9.80;99.90;;;;;;4913425;29;20731;-91
2023/04/21 07:18:41;;;;;;;67.33;38.10;;;9.80;99.90;;;;;;4935472;29;20588;-93
2023/04/21 07:21:27;;;;;;;64.80;38.20;;;9.80;99.90;;;;;;4902586;29;20210;-92
2023/04/21 07:24:11;;;;;;;72.73;39.37;;;9.80;99.90;;;;;;4932113;29;20194;-91
2023/04/21 07:27:09;;;;;;;73.83;38.93;;;9.90;99.90;;;;;;4931413;29;20214;-92
2023/04/21 07:29:39;;;;;;;65.77;38.97;;;9.90;99.90;;;;;;4942227;29;20261;-91
2023/04/21 07:32:19;;;;;;;65.90;39.60;;;9.80;99.90;;;;;;4924759;29;20228;-92
2023/04/21 07:35:26;;;;;;;66.47;37.67;;;9.90;99.90;;;;;;4947610;29;20257;-92
2023/04/21 07:38:41;;;;;;;67.13;38.10;;;9.90;99.90;;;;;;4923867;29;20198;-90
2023/04/21 07:41:22;;;;;;;68.87;37.37;;;9.90;99.90;;;;;;4928822;29;20221;-90
2023/04/21 07:44:12;;;;;;;71.10;39.27;;;9.90;99.90;;;;;;4952998;28;20658;-92
2023/04/21 07:47:32;;;;;;;;;;;;;;;;;;;;;
2023/04/21 07:50:24;;;;;;;71.97;38.70;;;9.90;99.90;;;;;;4951074;29;20201;-91
2023/04/21 07:53:00;;;;;;;64.43;39.37;;;10.00;99.90;;;;;;4955401;28;20239;-92
2023/04/21 07:56:19;;;;;;;;;;;;;;;;;;;;;
2023/04/21 07:59:10;;;;;;;59.37;36.00;;;10.00;99.90;;;;;;4952383;28;20193;-93
2023/04/21 08:02:00;;;;;;;77.23;39.47;;;10.10;99.90;;;;;;4958099;28;20266;-92
2023/04/21 08:04:40;;;;;;;62.10;37.47;;;10.20;99.90;;;;;;4942728;29;20241;-91
2023/04/21 08:07:30;;;;;;;59.93;37.17;;;10.20;99.90;;;;;;4940358;29;20195;-92
2023/04/21 08:10:42;;;;;;;64.13;37.43;;;10.30;99.90;;;;;;4941966;29;20198;-92
2023/04/21 08:13:54;;;;;;;59.97;36.90;;;10.30;99.90;;;;;;4918833;29;20246;-91
2023/04/21 08:17:00;;;;;;;60.33;37.43;;;10.40;99.90;;;;;;4932597;29;20259;-90
2023/04/21 08:20:27;;;;;;;65.53;37.10;;;10.40;99.90;;;;;;4942559;29;20283;-90
2023/04/21 08:23:29;;;;;;;59.80;34.97;;;10.40;99.90;;;;;;4924117;29;20294;-90
2023/04/21 08:26:06;;;;;;;62.70;37.57;;;10.50;99.90;;;;;;4922642;29;20206;-92
2023/04/21 08:28:55;;;;;;;59.07;36.23;;;10.50;99.90;;;;;;4960332;29;20651;-90
2023/04/21 08:32:01;;;;;;;53.23;35.63;;;10.50;99.90;;;;;;4941218;29;20731;-91
2023/04/21 08:34:45;;;;;;;51.83;33.40;;;10.50;99.90;;;;;;4926902;29;20657;-91
2023/04/21 08:38:10;;;;;;;;;;;;;;;;;;;;;
2023/04/21 08:41:26;;;;;;;;;;;;;;;;;;;;;
2023/04/21 08:51:40;;;;;;;49.47;31.53;;;10.70;99.90;;;;;;4936668;29;20195;-91
2023/04/21 08:55:09;;;;;;;54.83;35.07;;;10.80;99.90;;;;;;4910122;29;20294;-89
2023/04/21 08:57:54;;;;;;;57.40;34.17;;;10.80;99.90;;;;;;4900333;29;20998;-89
2023/04/21 09:00:26;;;;;;;57.53;34.17;;;10.90;99.90;;;;;;4947174;29;20224;-93
2023/04/21 09:02:56;;;;;;;57.27;35.53;;;11.00;99.90;;;;;;4946400;28;20965;-86
2023/04/21 09:05:31;;;;;;;57.83;35.40;;;11.00;99.90;;;;;;4953263;29;20214;-87
2023/04/21 09:08:13;;;;;;;52.83;34.27;;;11.20;99.90;;;;;;4940180;29;20223;-87
2023/04/21 09:10:58;;;;;;;50.87;32.37;;;11.30;99.90;;;;;;4929425;29;20237;-89
2023/04/21 09:13:46;;;;;;;46.30;30.50;;;11.30;99.90;;;;;;4929102;29;20306;-91
2023/04/21 09:16:17;;;;;;;51.07;31.13;;;11.40;99.90;;;;;;4941331;29;20208;-87
2023/04/21 09:18:44;;;;;;;48.73;31.97;;;11.30;99.90;;;;;;4935645;29;20651;-85
2023/04/21 09:21:18;;;;;;;47.47;30.60;;;11.40;99.90;;;;;;4944347;29;20272;-87
2023/04/21 09:23:56;;;;;;;47.40;29.60;;;11.40;99.90;;;;;;4939599;29;20208;-87
2023/04/21 09:26:25;;;;;;;56.47;32.27;;;11.50;99.90;;;;;;4945466;29;20245;-86
2023/04/21 09:28:52;;;;;;;46.23;29.80;;;11.50;99.90;;;;;;4921372;29;20295;-86
2023/04/21 09:31:23;;;;;;;46.10;30.20;;;11.60;99.90;;;;;;4926880;29;20221;-86
2023/04/21 09:34:18;;;;;;;47.07;31.00;;;11.60;99.90;;;;;;4943925;29;20286;-89
2023/04/21 09:36:46;;;;;;;48.70;30.63;;;11.60;99.90;;;;;;4929606;29;20204;-91
2023/04/21 09:39:21;;;;;;;46.03;30.07;;;11.70;99.90;;;;;;4948015;29;20227;-92
2023/04/21 09:42:10;;;;;;;42.00;28.67;;;11.90;99.90;;;;;;4941323;29;20205;-88
2023/04/21 09:44:39;;;;;;;44.37;29.00;;;12.10;99.90;;;;;;4944933;29;20209;-91
2023/04/21 09:47:38;;;;;;;41.93;28.23;;;12.30;99.90;;;;;;4942713;29;20205;-91
2023/04/21 09:50:21;;;;;;;47.87;29.63;;;12.40;99.90;;;;;;4950798;29;20201;-89
2023/04/21 09:53:27;;;;;;;43.80;27.83;;;12.60;99.90;;;;;;4929980;29;20369;-88
2023/04/21 09:56:01;;;;;;;35.27;25.23;;;12.70;99.90;;;;;;4923434;29;20246;-89
2023/04/21 09:58:53;;;;;;;38.63;26.53;;;12.60;99.90;;;;;;4928738;29;20204;-90
2023/04/21 10:01:31;;;;;;;40.80;27.57;;;12.60;99.90;;;;;;4932763;29;20229;-85
2023/04/21 10:04:08;;;;;;;38.73;27.87;;;12.70;99.90;;;;;;4935899;29;20240;-87
2023/04/21 10:06:40;;;;;;;38.77;27.13;;;12.70;99.90;;;;;;4933541;29;20280;-89
2023/04/21 10:09:23;;;;;;;38.80;27.53;;;12.80;99.90;;;;;;4928336;29;20204;-90
2023/04/21 10:11:54;;;;;;;38.67;26.83;;;12.70;99.90;;;;;;4924306;29;20224;-87
2023/04/21 10:14:27;;;;;;;38.37;26.33;;;12.60;99.90;;;;;;4941089;29;20224;-91
2023/04/21 10:17:06;;;;;;;40.37;27.30;;;12.60;99.90;;;;;;4939336;29;20205;-93
2023/04/21 10:19:49;;;;;;;37.17;26.50;;;12.60;99.90;;;;;;4930779;29;20204;-87
2023/04/21 10:22:33;;;;;;;39.07;28.17;;;12.60;99.90;;;;;;4939946;29;20233;-92
2023/04/21 10:25:07;;;;;;;45.77;27.17;;;12.60;99.90;;;;;;4947360;29;20229;-91
2023/04/21 10:27:57;;;;;;;45.47;28.03;;;12.70;99.90;;;;;;4928074;29;20205;-91
2023/04/21 10:30:31;;;;;;;41.63;28.90;;;12.80;99.90;;;;;;4914601;29;20276;-91
2023/04/21 10:33:03;;;;;;;34.97;26.17;;;12.80;99.90;;;;;;4936387;29;20289;-91
2023/04/21 10:36:12;;;;;;;41.97;26.93;;;12.90;99.90;;;;;;4914634;29;20216;-92
2023/04/21 10:38:45;;;;;;;43.33;27.40;;;13.00;99.90;;;;;;4917299;29;20205;-91
2023/04/21 10:41:41;;;;;;;39.40;26.37;;;13.10;99.90;;;;;;4913427;29;20628;-91
2023/04/21 10:44:30;;;;;;;39.47;26.30;;;13.20;99.90;;;;;;4915651;29;20210;-92
2023/04/21 10:47:43;;;;;;;41.77;27.67;;;13.30;99.90;;;;;;4931665;29;20761;-92
2023/04/21 10:50:37;;;;;;;38.40;27.10;;;13.40;99.90;;;;;;4914972;29;20216;-91
2023/04/21 10:53:11;;;;;;;42.90;28.23;;;13.40;99.90;;;;;;4912211;29;20232;-90
2023/04/21 10:55:40;;;;;;;38.73;27.83;;;13.50;99.90;;;;;;4914574;29;20298;-89
2023/04/21 10:58:45;;;;;;;39.93;27.70;;;13.60;99.90;;;;;;4911821;29;20230;-90
2023/04/21 11:05:03;;;;;;;38.70;27.27;;;13.80;99.90;;;;;;4857180;29;20272;-90
2023/04/21 11:08:29;;;;;;;37.50;25.70;;;13.90;99.90;;;;;;4851083;29;20208;-90
2023/04/21 11:12:08;;;;;;;;;;;;;;;;;;;;;
2023/04/21 11:15:26;;;;;;;39.83;26.80;;;14.10;99.90;;;;;;4845896;29;20288;-92
2023/04/21 11:19:23;;;;;;;;;;;;;;;;;;;;;
2023/04/21 11:22:08;;;;;;;36.27;25.83;;;14.00;99.90;;;;;;4832111;29;20212;-88
2023/04/21 11:24:51;;;;;;;37.97;26.17;;;14.00;99.90;;;;;;4829337;29;20682;-88
2023/04/21 11:28:07;;;;;;;37.93;26.83;;;14.00;99.90;;;;;;4833939;29;20319;-89
2023/04/21 11:31:05;;;;;;;40.03;26.10;;;14.00;99.90;;;;;;4818622;29;20224;-91
2023/04/21 11:33:46;;;;;;;36.37;26.83;;;14.10;99.90;;;;;;4810699;29;20272;-89
2023/04/21 11:36:14;;;;;;;40.77;26.83;;;14.10;99.90;;;;;;4897285;29;20330;-86
2023/04/21 11:39:16;;;;;;;37.43;27.10;;;14.00;99.90;;;;;;4889026;29;20199;-90
2023/04/21 11:42:06;;;;;;;41.40;27.63;;;14.10;99.90;;;;;;4895972;29;20206;-89
2023/04/21 11:44:46;;;;;;;37.07;25.80;;;14.10;99.90;;;;;;4888494;29;20234;-90
2023/04/21 11:47:42;;;;;;;41.17;27.60;;;14.20;99.90;;;;;;4896007;29;20210;-90
2023/04/21 11:51:06;;;;;;;36.37;26.33;;;14.30;99.90;;;;;;4894972;29;20524;-90
2023/04/21 11:53:49;;;;;;;40.10;27.27;;;14.30;99.90;;;;;;4882082;29;20243;-90
2023/04/21 11:56:39;;;;;;;39.43;27.53;;;14.40;99.90;;;;;;4890470;29;20761;-86
2023/04/21 11:59:22;;;;;;;39.27;28.47;;;14.60;99.90;;;;;;4896774;29;20249;-88
2023/04/21 12:01:54;;;;;;;42.63;28.60;;;14.70;99.90;;;;;;4905488;29;20214;-90
2023/04/21 12:04:27;;;;;;;41.20;28.57;;;14.70;99.90;;;;;;4911274;29;20236;-89
2023/04/21 12:07:17;;;;;;;45.53;29.53;;;14.90;99.90;;;;;;4899793;29;20213;-90
2023/04/21 12:10:00;;;;;;;39.53;26.50;;;15.00;99.90;;;;;;4901507;29;20203;-89
2023/04/21 12:12:31;;;;;;;42.57;27.73;;;15.20;99.90;;;;;;4894038;29;20380;-92
2023/04/21 12:15:24;;;;;;;37.10;26.27;;;15.30;99.90;;;;;;4905589;29;20234;-91
2023/04/21 12:17:54;;;;;;;36.37;26.40;;;15.40;99.90;;;;;;4917670;29;20220;-91
2023/04/21 12:20:47;;;;;;;39.60;26.97;;;15.40;99.90;;;;;;4914374;29;20264;-92
2023/04/21 12:23:29;;;;;;;39.00;27.53;;;15.40;99.90;;;;;;4901626;29;20257;-92
2023/04/21 12:26:16;;;;;;;37.70;27.10;;;15.30;99.90;;;;;;4898837;29;20690;-88
2023/04/21 12:28:54;;;;;;;39.93;26.77;;;15.30;99.90;;;;;;4904257;29;20228;-87
2023/04/21 12:31:27;;;;;;;38.03;25.90;;;15.30;99.90;;;;;;4895756;29;20568;-88
2023/04/21 12:34:20;;;;;;;39.90;25.25;;;15.40;99.90;;;;;;4895900;29;20232;-86
2023/04/21 12:37:03;;;;;;;46.85;26.02;;;15.50;99.90;;;;;;4921992;29;20205;-86
2023/04/21 12:40:19;;;;;;;37.35;25.40;;;15.70;99.90;;;;;;4851469;29;20204;-93
2023/04/21 12:43:28;;;;;;;36.03;24.77;;;15.80;99.90;;;;;;4835279;29;20219;-87
2023/04/21 12:46:32;;;;;;;36.47;25.67;;;15.90;99.90;;;;;;4846807;29;20222;-86
2023/04/21 12:49:13;;;;;;;35.30;23.95;;;16.00;99.90;;;;;;4826437;29;20667;-89
2023/04/21 12:51:52;;;;;;;36.38;25.13;;;16.00;99.90;;;;;;4846056;29;20318;-89
2023/04/21 12:54:30;;;;;;;33.83;24.05;;;16.00;99.90;;;;;;4851873;29;20236;-88
2023/04/21 12:57:14;;;;;;;35.65;24.85;;;16.20;99.90;;;;;;4884634;29;20213;-86
2023/04/21 12:59:44;;;;;;;36.35;24.73;;;16.20;99.90;;;;;;4903619;29;20238;-88
2023/04/21 13:02:21;;;;;;;34.72;23.48;;;16.30;99.90;;;;;;4913908;29;20217;-88
2023/04/21 13:05:13;;;;;;;36.42;25.10;;;16.30;99.90;;;;;;4889735;29;20275;-89
2023/04/21 13:07:44;;;;;;;35.13;25.00;;;16.50;99.90;;;;;;4900517;29;20261;-86
2023/04/21 13:10:21;;;;;;;37.22;25.77;;;16.60;99.90;;;;;;4919437;29;20974;-88
2023/04/21 13:12:54;;;;;;;33.08;24.27;;;16.80;99.90;;;;;;4918397;29;20570;-87
2023/04/21 13:15:22;;;;;;;34.22;25.27;;;16.80;99.90;;;;;;4919835;29;20257;-90
2023/04/21 13:18:33;;;;;;;33.97;24.63;;;16.90;99.90;;;;;;4904012;29;20221;-89
2023/04/21 13:21:13;;;;;;;32.85;24.10;;;17.00;99.90;;;;;;4900750;29;20671;-90
2023/04/21 13:23:53;;;;;;;38.03;25.92;;;17.20;99.90;;;;;;4912348;29;20210;-89
2023/04/21 13:26:21;;;;;;;33.83;24.88;;;17.40;99.90;;;;;;4917001;29;20203;-89
2023/04/21 13:28:49;;;;;;;32.50;23.77;;;17.70;99.90;;;;;;4912545;29;20226;-87
2023/04/21 13:31:16;;;;;;;28.75;22.58;;;17.90;99.90;;;;;;4898644;29;20218;-88
2023/04/21 13:33:43;;;;;;;30.45;21.90;;;18.20;99.90;;;;;;4924276;29;20221;-86
2023/04/21 13:36:11;;;;;;;29.15;22.88;;;18.30;99.90;;;;;;4906064;29;20913;-89
2023/04/21 13:38:42;;;;;;;31.90;23.20;;;18.30;99.90;;;;;;4906001;29;20205;-88
2023/04/21 13:41:10;;;;;;;30.38;21.92;;;18.30;99.90;;;;;;4909690;29;20198;-88
2023/04/21 13:43:42;;;;;;;34.05;22.83;;;18.40;99.90;;;;;;4913841;29;20226;-88
2023/04/21 13:46:13;;;;;;;30.15;22.83;;;18.40;99.90;;;;;;4915439;29;20217;-88
2023/04/21 13:48:41;;;;;;;31.10;22.90;;;18.30;99.90;;;;;;4914441;29;20202;-91
2023/04/21 13:51:13;;;;;;;33.15;22.95;;;18.40;99.90;;;;;;4903985;29;20298;-87
2023/04/21 13:53:51;;;;;;;30.63;22.15;;;18.40;99.90;;;;;;4918965;29;20692;-89
2023/04/21 13:56:21;;;;;;;31.80;23.08;;;18.50;99.90;;;;;;4899141;29;20272;-89
2023/04/21 13:58:58;;;;;;;28.88;22.63;;;18.50;99.90;;;;;;4900213;29;20205;-91
2023/04/21 14:01:28;;;;;;;31.25;23.15;;;18.40;99.90;;;;;;4906442;29;20218;-90
2023/04/21 14:03:55;;;;;;;31.45;22.67;;;18.50;99.90;;;;;;4918647;29;20233;-92
2023/04/21 14:06:25;;;;;;;29.80;22.55;;;18.60;99.90;;;;;;4912181;29;20206;-87
2023/04/21 14:08:53;;;;;;;31.00;22.35;;;18.60;99.90;;;;;;4912418;29;20242;-87
2023/04/21 14:11:21;;;;;;;28.35;22.58;;;18.70;99.90;;;;;;4918257;29;20213;-87
2023/04/21 14:13:54;;;;;;;31.83;21.85;;;18.80;99.90;;;;;;4896744;29;20296;-87
2023/04/21 14:16:35;;;;;;;28.23;22.38;;;18.80;99.90;;;;;;4912019;29;20225;-86
2023/04/21 14:19:02;;;;;;;31.20;22.60;;;18.80;99.90;;;;;;4898594;29;20209;-86